Hesperides — EANN — position and weather

sailwx.info

Track history (hours):
 
Tides and Currents Weather Stations Pressure Air Temp Water Temp Dewpoint Dewpoint Depression Visibility Wind Speed Wind Dir Waves Ship Positions

Hesperides

Last reported at 2016-Feb-10 23:33 UTC. Time now 2016-Feb-11 00:32 UTC.
Position N 28°42' W 014°09'.

Length 122 m; draft 6.7 m.

Type: Tanker. MMSI: 224462000.

Date/timePositionNaut miles runAvg speedWind from/ knotsBaromVisibWave heightAir tempDewpointWater temp
2016-Feb-10 23:33N 28°42' W 014°09'9 9.3
2016-Feb-10 22:33N 28°38' W 014°19'10 9.3
2016-Feb-10 21:32N 28°33' W 014°28'9 9.5
2016-Feb-10 20:33N 28°28' W 014°37'10 9.5
2016-Feb-10 19:33N 28°25' W 014°47'10 9.6
2016-Feb-10 18:33N 28°21' W 014°57'9 9.2
2016-Feb-10 17:33N 28°14' W 015°04'9 9.2
2016-Feb-10 16:33N 28°07' W 015°11'9 9.4
2016-Feb-10 15:33N 28°00' W 015°18'4 4.4
2016-Feb-10 14:33N 27°59' W 015°23'0 0.0
2016-Feb-09 18:33N 27°59' W 015°23'4 3.8
2016-Feb-09 17:33N 28°02' W 015°20'10 9.7
2016-Feb-09 16:33N 28°11' W 015°21'9 8.7
2016-Feb-09 15:33N 28°14' W 015°31'10 9.7
2016-Feb-09 14:33N 28°18' W 015°41'10 9.6
2016-Feb-09 13:33N 28°21' W 015°51'10 9.6
2016-Feb-09 12:33N 28°24' W 016°01'10 9.6
2016-Feb-09 11:33N 28°28' W 016°11'2 0.1
2016-Feb-08 19:33N 28°29' W 016°13'2 2.2
2016-Feb-08 18:31N 28°30' W 016°11'0 0.0
2016-Feb-08 17:28N 28°30' W 016°11'0 0.0
2016-Feb-08 16:28N 28°30' W 016°11'0 0.0
2016-Feb-08 15:31N 28°30' W 016°11'0 0.0
2016-Feb-08 14:04N 28°30' W 016°11'0 0.0
2016-Feb-08 13:31N 28°30' W 016°11'0 0.0
2016-Feb-08 12:33N 28°30' W 016°11'5 5.3
2016-Feb-08 11:33N 28°27' W 016°16'  
2016-Feb-05 13:06N 27°59' W 015°18'5 8.3
2016-Feb-05 12:33N 27°58' W 015°23'50 1.7
2016-Feb-04 06:33N 28°27' W 016°09'4 4.1
2016-Feb-04 05:29N 28°29' W 016°13'0 0.0
2016-Feb-03 09:24N 28°29' W 016°13'1 0.8
2016-Feb-03 08:20N 28°29' W 016°12'0 0.0
2016-Feb-03 02:26N 28°29' W 016°12'1 1.1
2016-Feb-03 01:32N 28°28' W 016°13'8 8.4
2016-Feb-03 00:33N 28°26' W 016°04'10 9.9
2016-Feb-02 23:33N 28°23' W 015°53'1010.3
2016-Feb-02 22:33N 28°19' W 015°42'1010.5
2016-Feb-02 21:33N 28°15' W 015°31'10 9.9
2016-Feb-02 20:34N 28°11' W 015°21'1010.4
2016-Feb-02 19:33N 28°00' W 015°20'3 0.1
2016-Feb-01 19:33N 27°59' W 015°22'3 2.8
2016-Feb-01 18:33N 28°01' W 015°20'9 9.3
2016-Feb-01 17:33N 28°10' W 015°21'8 7.9
2016-Feb-01 16:33N 28°14' W 015°28'9 9.3
2016-Feb-01 15:33N 28°18' W 015°38'9 9.4
2016-Feb-01 14:33N 28°21' W 015°48'9 9.3
2016-Feb-01 13:33N 28°24' W 015°58'9 9.4
2016-Feb-01 12:33N 28°27' W 016°08'5 4.8
2016-Feb-01 11:33N 28°29' W 016°13'  
Track history (hours):
 
Tides and Currents Weather Stations Pressure Air Temp Water Temp Dewpoint Dewpoint Depression Visibility Wind Speed Wind Dir Waves Ship Positions

Hesperides

Last reported at 2016-Feb-10 23:33 UTC. Time now 2016-Feb-11 00:32 UTC.
Position N 28°42' W 014°09'.

Length 122 m; draft 6.7 m.

Type: Tanker. MMSI: 224462000.

Date/timePositionNaut miles runAvg speedWind from/ knotsBaromVisibWave heightAir tempDewpointWater temp
2016-Feb-10 23:33N 28°42' W 014°09'9 9.3
2016-Feb-10 22:33N 28°38' W 014°19'10 9.3
2016-Feb-10 21:32N 28°33' W 014°28'9 9.5
2016-Feb-10 20:33N 28°28' W 014°37'10 9.5
2016-Feb-10 19:33N 28°25' W 014°47'10 9.6
2016-Feb-10 18:33N 28°21' W 014°57'9 9.2
2016-Feb-10 17:33N 28°14' W 015°04'9 9.2
2016-Feb-10 16:33N 28°07' W 015°11'9 9.4
2016-Feb-10 15:33N 28°00' W 015°18'4 4.4
2016-Feb-10 14:33N 27°59' W 015°23'0 0.0
2016-Feb-09 18:33N 27°59' W 015°23'4 3.8
2016-Feb-09 17:33N 28°02' W 015°20'10 9.7
2016-Feb-09 16:33N 28°11' W 015°21'9 8.7
2016-Feb-09 15:33N 28°14' W 015°31'10 9.7
2016-Feb-09 14:33N 28°18' W 015°41'10 9.6
2016-Feb-09 13:33N 28°21' W 015°51'10 9.6
2016-Feb-09 12:33N 28°24' W 016°01'10 9.6
2016-Feb-09 11:33N 28°28' W 016°11'2 0.1
2016-Feb-08 19:33N 28°29' W 016°13'2 2.2
2016-Feb-08 18:31N 28°30' W 016°11'0 0.0
2016-Feb-08 17:28N 28°30' W 016°11'0 0.0
2016-Feb-08 16:28N 28°30' W 016°11'0 0.0
2016-Feb-08 15:31N 28°30' W 016°11'0 0.0
2016-Feb-08 14:04N 28°30' W 016°11'0 0.0
2016-Feb-08 13:31N 28°30' W 016°11'0 0.0
2016-Feb-08 12:33N 28°30' W 016°11'5 5.3
2016-Feb-08 11:33N 28°27' W 016°16'  
2016-Feb-05 13:06N 27°59' W 015°18'5 8.3
2016-Feb-05 12:33N 27°58' W 015°23'50 1.7
2016-Feb-04 06:33N 28°27' W 016°09'4 4.1
2016-Feb-04 05:29N 28°29' W 016°13'0 0.0
2016-Feb-03 09:24N 28°29' W 016°13'1 0.8
2016-Feb-03 08:20N 28°29' W 016°12'0 0.0
2016-Feb-03 02:26N 28°29' W 016°12'1 1.1
2016-Feb-03 01:32N 28°28' W 016°13'8 8.4
2016-Feb-03 00:33N 28°26' W 016°04'10 9.9
2016-Feb-02 23:33N 28°23' W 015°53'1010.3
2016-Feb-02 22:33N 28°19' W 015°42'1010.5
2016-Feb-02 21:33N 28°15' W 015°31'10 9.9
2016-Feb-02 20:34N 28°11' W 015°21'1010.4
2016-Feb-02 19:33N 28°00' W 015°20'3 0.1
2016-Feb-01 19:33N 27°59' W 015°22'3 2.8
2016-Feb-01 18:33N 28°01' W 015°20'9 9.3
2016-Feb-01 17:33N 28°10' W 015°21'8 7.9
2016-Feb-01 16:33N 28°14' W 015°28'9 9.3
2016-Feb-01 15:33N 28°18' W 015°38'9 9.4
2016-Feb-01 14:33N 28°21' W 015°48'9 9.3
2016-Feb-01 13:33N 28°24' W 015°58'9 9.4
2016-Feb-01 12:33N 28°27' W 016°08'5 4.8
2016-Feb-01 11:33N 28°29' W 016°13'  

Dump ship's entire track history